Time;durP1;ratioP1;P1;durP2;ratioP2;P2;SDS_P1;SDS_P2;PMS_P1;PMS_P2;Temp;Humidity;BMP_temperature;BMP_pressure;BME280_temperature;BME280_humidity;BME280_pressure;Samples;Min_cycle;Max_cycle;Signal;HPM_P1;HPM_P2
2022/03/14 00:02:24;;;;;;;14.75;10.05;;;;;;;;;;5136882;28;20490;-50
2022/03/14 00:04:52;;;;;;;17.17;10.10;;;;;;;;;;5136452;28;20202;-50
2022/03/14 00:07:19;;;;;;;13.98;9.52;;;;;;;;;;5136582;28;20292;-50
2022/03/14 00:09:47;;;;;;;14.20;9.35;;;;;;;;;;5136274;28;20237;-50
2022/03/14 00:12:23;;;;;;;14.35;9.10;;;;;;;;;;5136320;28;20252;-50
2022/03/14 00:14:53;;;;;;;12.43;7.95;;;;;;;;;;5136817;28;20225;-50
2022/03/14 00:17:20;;;;;;;14.57;9.32;;;;;;;;;;5136920;28;20519;-50
2022/03/14 00:19:50;;;;;;;13.25;8.38;;;;;;;;;;5137137;28;20435;-50
2022/03/14 00:22:22;;;;;;;13.88;8.07;;;;;;;;;;5137063;28;20521;-50
2022/03/14 00:24:50;;;;;;;12.48;8.30;;;;;;;;;;5136946;28;20309;-50
2022/03/14 00:27:17;;;;;;;12.13;8.48;;;;;;;;;;5136733;28;20202;-50
2022/03/14 00:29:45;;;;;;;20.85;13.88;;;;;;;;;;5136588;28;20309;-50
2022/03/14 00:32:12;;;;;;;17.08;11.35;;;;;;;;;;5136752;28;20202;-50
2022/03/14 00:34:40;;;;;;;15.20;10.05;;;;;;;;;;5136828;28;20213;-50
2022/03/14 00:37:09;;;;;;;15.02;10.50;;;;;;;;;;5135931;28;20210;-50
2022/03/14 00:39:37;;;;;;;15.80;10.63;;;;;;;;;;5136571;28;20199;-50
2022/03/14 00:42:04;;;;;;;16.15;10.02;;;;;;;;;;5135809;28;20631;-50
2022/03/14 00:44:32;;;;;;;13.15;9.07;;;;;;;;;;5136392;28;20202;-50
2022/03/14 00:46:59;;;;;;;15.32;9.55;;;;;;;;;;5136213;28;20202;-50
2022/03/14 00:49:27;;;;;;;14.02;9.45;;;;;;;;;;5136096;27;20501;-50
2022/03/14 00:51:54;;;;;;;13.05;9.50;;;;;;;;;;5139288;27;20297;-50
2022/03/14 00:54:23;;;;;;;11.57;8.85;;;;;;;;;;5140392;27;20202;-50
2022/03/14 00:56:50;;;;;;;12.07;8.75;;;;;;;;;;5139326;27;20238;-50
2022/03/14 00:59:17;;;;;;;12.45;8.68;;;;;;;;;;5140745;27;20213;-50
2022/03/14 01:01:45;;;;;;;11.15;8.05;;;;;;;;;;5140354;27;20214;-50
2022/03/14 01:04:12;;;;;;;12.80;8.55;;;;;;;;;;5140840;27;20460;-50
2022/03/14 01:06:40;;;;;;;11.70;8.35;;;;;;;;;;5140476;27;20202;-50
2022/03/14 01:09:11;;;;;;;9.80;7.65;;;;;;;;;;5140451;27;20531;-50
2022/03/14 01:11:40;;;;;;;12.35;7.90;;;;;;;;;;5140623;27;20448;-50
2022/03/14 01:14:07;;;;;;;10.43;7.72;;;;;;;;;;5140047;27;20248;-50
2022/03/14 01:16:37;;;;;;;11.07;7.65;;;;;;;;;;5140112;27;20206;-50
2022/03/14 01:19:04;;;;;;;9.80;8.00;;;;;;;;;;5140285;27;20202;-50
2022/03/14 01:21:32;;;;;;;10.32;7.78;;;;;;;;;;5140897;27;20202;-50
2022/03/14 01:24:01;;;;;;;8.93;6.97;;;;;;;;;;5140961;27;20206;-50
2022/03/14 01:26:29;;;;;;;10.77;7.65;;;;;;;;;;5140508;27;20267;-50
2022/03/14 01:28:58;;;;;;;9.80;7.40;;;;;;;;;;5140388;27;20237;-50
2022/03/14 01:31:26;;;;;;;9.82;7.15;;;;;;;;;;5140565;27;20229;-50
2022/03/14 01:33:54;;;;;;;10.40;7.88;;;;;;;;;;5140724;27;20202;-50
2022/03/14 01:36:21;;;;;;;8.93;6.82;;;;;;;;;;5140430;27;20198;-50
2022/03/14 01:38:51;;;;;;;10.07;7.18;;;;;;;;;;5140721;27;20202;-50
2022/03/14 01:41:18;;;;;;;9.77;7.28;;;;;;;;;;5140532;27;20199;-50
2022/03/14 01:43:47;;;;;;;9.43;6.63;;;;;;;;;;5140299;27;20209;-50
2022/03/14 01:46:16;;;;;;;8.57;6.82;;;;;;;;;;5140302;27;20202;-50
2022/03/14 01:48:44;;;;;;;9.48;6.97;;;;;;;;;;5140062;27;20202;-50
2022/03/14 01:51:11;;;;;;;9.15;6.68;;;;;;;;;;5140135;27;20662;-50
2022/03/14 01:53:39;;;;;;;9.18;6.85;;;;;;;;;;5140335;27;20232;-50
2022/03/14 01:56:06;;;;;;;8.30;6.25;;;;;;;;;;5139615;27;20252;-50
2022/03/14 01:58:34;;;;;;;8.02;6.68;;;;;;;;;;5139612;27;20229;-50
2022/03/14 02:01:01;;;;;;;8.48;6.70;;;;;;;;;;5139298;27;20764;-50
2022/03/14 02:03:30;;;;;;;7.20;6.28;;;;;;;;;;5139565;27;20297;-50
2022/03/14 02:05:58;;;;;;;7.35;6.03;;;;;;;;;;5139715;27;20289;-50
2022/03/14 02:08:25;;;;;;;7.30;5.75;;;;;;;;;;5139545;27;20202;-50
2022/03/14 02:10:53;;;;;;;7.57;5.68;;;;;;;;;;5139557;27;20659;-50
2022/03/14 02:13:20;;;;;;;7.38;6.22;;;;;;;;;;5140067;27;20206;-50
2022/03/14 02:15:48;;;;;;;7.75;5.85;;;;;;;;;;5139616;27;20206;-50
2022/03/14 02:18:15;;;;;;;7.30;6.00;;;;;;;;;;5139259;27;20255;-50
2022/03/14 02:20:44;;;;;;;7.25;6.30;;;;;;;;;;5139425;27;20209;-50
2022/03/14 02:23:12;;;;;;;7.28;6.03;;;;;;;;;;5139371;27;20198;-50
2022/03/14 02:25:47;;;;;;;7.15;5.40;;;;;;;;;;5139607;27;20206;-50
2022/03/14 02:28:15;;;;;;;7.40;5.55;;;;;;;;;;5139526;27;20463;-50
2022/03/14 02:30:43;;;;;;;7.13;5.45;;;;;;;;;;5139162;27;20290;-50
2022/03/14 02:33:11;;;;;;;6.75;5.95;;;;;;;;;;5139159;27;20206;-50
2022/03/14 02:35:39;;;;;;;7.05;5.60;;;;;;;;;;5139072;27;20212;-50
2022/03/14 02:38:14;;;;;;;6.30;5.63;;;;;;;;;;5139367;27;20524;-50
2022/03/14 02:40:45;;;;;;;6.07;5.38;;;;;;;;;;5138574;27;20200;-50
2022/03/14 02:43:15;;;;;;;6.68;5.57;;;;;;;;;;5138833;27;20709;-50
2022/03/14 02:45:42;;;;;;;5.97;5.18;;;;;;;;;;5138852;27;20220;-50
2022/03/14 02:48:10;;;;;;;6.50;5.40;;;;;;;;;;5138779;27;20206;-50
2022/03/14 02:50:42;;;;;;;5.97;5.35;;;;;;;;;;5137913;27;20256;-50
2022/03/14 02:53:13;;;;;;;7.45;5.40;;;;;;;;;;5138979;27;20199;-50
2022/03/14 02:55:41;;;;;;;5.50;4.88;;;;;;;;;;5138742;27;20202;-50
2022/03/14 02:58:08;;;;;;;6.10;5.50;;;;;;;;;;5138615;27;20244;-50
2022/03/14 03:00:36;;;;;;;5.53;4.95;;;;;;;;;;5138483;27;20198;-50
2022/03/14 03:03:04;;;;;;;6.15;4.95;;;;;;;;;;5138516;27;20202;-50
2022/03/14 03:05:34;;;;;;;5.28;4.78;;;;;;;;;;5138809;27;20213;-50
2022/03/14 03:08:04;;;;;;;6.93;5.22;;;;;;;;;;5138086;27;20209;-50
2022/03/14 03:10:34;;;;;;;5.53;4.95;;;;;;;;;;5138182;27;20265;-50
2022/03/14 03:13:02;;;;;;;6.18;5.22;;;;;;;;;;5138401;27;20443;-50
2022/03/14 03:15:30;;;;;;;5.50;4.90;;;;;;;;;;5138589;27;20255;-50
2022/03/14 03:17:57;;;;;;;5.57;4.80;;;;;;;;;;5138476;27;20213;-50
2022/03/14 03:20:26;;;;;;;5.05;4.55;;;;;;;;;;5138421;27;20205;-50
2022/03/14 03:22:54;;;;;;;5.90;4.80;;;;;;;;;;5138387;27;20586;-50
2022/03/14 03:25:21;;;;;;;5.35;4.85;;;;;;;;;;5138536;27;20210;-50
2022/03/14 03:27:50;;;;;;;5.05;4.47;;;;;;;;;;5137720;27;20199;-50
2022/03/14 03:30:18;;;;;;;5.35;4.63;;;;;;;;;;5138633;27;20511;-50
2022/03/14 03:32:45;;;;;;;5.55;5.05;;;;;;;;;;5137898;27;20202;-50
2022/03/14 03:35:12;;;;;;;5.05;4.50;;;;;;;;;;5138035;27;20201;-50
2022/03/14 03:37:40;;;;;;;4.75;4.35;;;;;;;;;;5138199;27;20577;-50
2022/03/14 03:40:07;;;;;;;6.13;4.90;;;;;;;;;;5138196;27;20205;-50
2022/03/14 03:42:35;;;;;;;5.13;4.63;;;;;;;;;;5138394;27;20217;-50
2022/03/14 03:45:05;;;;;;;5.13;4.25;;;;;;;;;;5137864;27;20493;-50
2022/03/14 03:47:33;;;;;;;5.32;4.82;;;;;;;;;;5137506;27;20202;-50
2022/03/14 03:50:00;;;;;;;5.60;4.82;;;;;;;;;;5137444;27;20226;-50
2022/03/14 03:52:27;;;;;;;4.90;4.40;;;;;;;;;;5137418;27;20203;-50
2022/03/14 03:54:55;;;;;;;4.80;4.40;;;;;;;;;;5137722;27;20607;-50
2022/03/14 03:57:22;;;;;;;4.95;4.45;;;;;;;;;;5137620;27;20229;-50
2022/03/14 03:59:50;;;;;;;4.80;4.30;;;;;;;;;;5138092;27;20210;-50
2022/03/14 04:02:19;;;;;;;5.07;4.57;;;;;;;;;;5138103;28;20571;-50
2022/03/14 04:04:46;;;;;;;4.88;4.40;;;;;;;;;;5137463;28;20203;-50
2022/03/14 04:07:16;;;;;;;4.45;4.05;;;;;;;;;;5137569;28;20210;-50
2022/03/14 04:09:43;;;;;;;4.60;4.20;;;;;;;;;;5137522;28;20242;-50
2022/03/14 04:12:11;;;;;;;4.85;4.22;;;;;;;;;;5137153;28;20258;-50
2022/03/14 04:14:39;;;;;;;4.45;4.05;;;;;;;;;;5137063;28;20503;-50
2022/03/14 04:17:07;;;;;;;4.57;4.18;;;;;;;;;;5136342;28;20210;-50
2022/03/14 04:19:38;;;;;;;4.50;4.10;;;;;;;;;;5137085;28;20202;-50
2022/03/14 04:22:06;;;;;;;4.32;3.92;;;;;;;;;;5137361;28;20206;-50
2022/03/14 04:24:36;;;;;;;4.35;3.95;;;;;;;;;;5137911;27;20202;-50
2022/03/14 04:27:04;;;;;;;4.15;3.85;;;;;;;;;;5141830;27;20267;-50
2022/03/14 04:29:31;;;;;;;4.45;4.05;;;;;;;;;;5141418;27;20255;-50
2022/03/14 04:31:58;;;;;;;4.32;3.92;;;;;;;;;;5140988;27;20241;-50
2022/03/14 04:34:26;;;;;;;4.55;4.15;;;;;;;;;;5141439;27;20210;-50
2022/03/14 04:36:54;;;;;;;4.50;4.10;;;;;;;;;;5141138;27;20206;-50
2022/03/14 04:39:23;;;;;;;4.50;4.10;;;;;;;;;;5141447;27;20293;-50
2022/03/14 04:41:51;;;;;;;4.57;4.18;;;;;;;;;;5140990;27;20221;-50
2022/03/14 04:44:21;;;;;;;4.25;3.85;;;;;;;;;;5141159;27;20587;-50
2022/03/14 04:46:48;;;;;;;4.65;4.20;;;;;;;;;;5139997;27;20612;-50
2022/03/14 04:49:16;;;;;;;4.30;3.90;;;;;;;;;;5141076;27;20223;-50
2022/03/14 04:51:50;;;;;;;4.20;3.80;;;;;;;;;;5140848;27;20312;-50
2022/03/14 04:54:19;;;;;;;4.28;3.88;;;;;;;;;;5140844;27;20213;-50
2022/03/14 04:56:47;;;;;;;4.55;4.15;;;;;;;;;;5140466;27;20234;-50
2022/03/14 04:59:14;;;;;;;4.20;3.80;;;;;;;;;;5140389;27;20213;-50
2022/03/14 05:01:42;;;;;;;4.47;4.07;;;;;;;;;;5140665;27;20198;-50
2022/03/14 05:04:09;;;;;;;4.38;3.97;;;;;;;;;;5140426;27;20202;-50
2022/03/14 05:06:37;;;;;;;4.35;3.95;;;;;;;;;;5140251;27;20234;-50
2022/03/14 05:09:05;;;;;;;4.47;4.07;;;;;;;;;;5140422;27;20301;-50
2022/03/14 05:11:34;;;;;;;4.13;3.72;;;;;;;;;;5140144;27;20633;-50
2022/03/14 05:14:01;;;;;;;4.30;3.67;;;;;;;;;;5140125;27;20209;-50
2022/03/14 05:16:29;;;;;;;3.92;3.60;;;;;;;;;;5139443;27;20210;-50
2022/03/14 05:18:57;;;;;;;4.70;4.20;;;;;;;;;;5140100;27;20237;-50
2022/03/14 05:21:24;;;;;;;3.92;3.63;;;;;;;;;;5140145;27;20296;-50
2022/03/14 05:23:51;;;;;;;4.20;3.78;;;;;;;;;;5138729;27;20271;-50
2022/03/14 05:26:19;;;;;;;4.68;4.20;;;;;;;;;;5138870;27;20213;-50
2022/03/14 05:28:47;;;;;;;4.22;3.83;;;;;;;;;;5139224;27;20213;-50
2022/03/14 05:31:15;;;;;;;4.40;4.00;;;;;;;;;;5138539;27;20237;-50
2022/03/14 05:33:43;;;;;;;4.30;3.90;;;;;;;;;;5138041;27;20217;-50
2022/03/14 05:36:10;;;;;;;4.20;3.90;;;;;;;;;;5136565;27;20202;-50
2022/03/14 05:38:37;;;;;;;4.30;3.90;;;;;;;;;;5137722;27;20202;-50
2022/03/14 05:41:05;;;;;;;4.40;4.00;;;;;;;;;;5138287;27;20214;-50
2022/03/14 05:43:36;;;;;;;4.13;3.72;;;;;;;;;;5137243;27;20229;-50
2022/03/14 05:46:06;;;;;;;4.47;4.07;;;;;;;;;;5137265;27;20623;-50
2022/03/14 05:48:35;;;;;;;4.25;3.85;;;;;;;;;;5137117;27;20202;-50
2022/03/14 05:51:03;;;;;;;4.40;3.95;;;;;;;;;;5137547;27;20214;-50
2022/03/14 05:53:31;;;;;;;4.13;3.72;;;;;;;;;;5136530;27;20202;-50
2022/03/14 05:55:59;;;;;;;4.45;4.05;;;;;;;;;;5136445;27;20200;-50
2022/03/14 05:58:26;;;;;;;4.07;3.78;;;;;;;;;;5137392;27;20226;-50
2022/03/14 06:00:54;;;;;;;4.32;3.92;;;;;;;;;;5137110;27;20213;-50
2022/03/14 06:03:23;;;;;;;4.43;4.03;;;;;;;;;;5136587;27;20492;-50
2022/03/14 06:05:50;;;;;;;4.55;4.15;;;;;;;;;;5135944;27;20194;-50
2022/03/14 06:08:18;;;;;;;4.25;3.83;;;;;;;;;;5135734;27;20206;-50
2022/03/14 06:10:46;;;;;;;4.20;3.80;;;;;;;;;;5135020;27;20221;-50
2022/03/14 06:13:13;;;;;;;3.75;3.45;;;;;;;;;;5135716;27;20202;-50
2022/03/14 06:15:41;;;;;;;4.20;3.80;;;;;;;;;;5134898;27;20214;-50
2022/03/14 06:18:08;;;;;;;4.15;3.75;;;;;;;;;;5134428;27;20199;-50
2022/03/14 06:20:37;;;;;;;4.22;3.83;;;;;;;;;;5135192;27;20233;-50
2022/03/14 06:23:04;;;;;;;3.80;3.50;;;;;;;;;;5134744;27;20209;-50
2022/03/14 06:25:32;;;;;;;4.18;3.78;;;;;;;;;;5135211;27;20620;-50
2022/03/14 06:27:59;;;;;;;4.10;3.70;;;;;;;;;;5136660;27;20206;-50
2022/03/14 06:30:27;;;;;;;4.40;4.00;;;;;;;;;;5134718;27;20206;-50
2022/03/14 06:32:54;;;;;;;3.78;3.47;;;;;;;;;;5135760;27;20237;-50
2022/03/14 06:35:22;;;;;;;4.43;4.03;;;;;;;;;;5136232;27;20221;-50
2022/03/14 06:37:51;;;;;;;4.07;3.67;;;;;;;;;;5138284;27;20199;-50
2022/03/14 06:40:21;;;;;;;3.85;3.50;;;;;;;;;;5137314;27;20727;-50
2022/03/14 06:42:50;;;;;;;4.40;4.00;;;;;;;;;;5136757;27;20712;-50
2022/03/14 06:45:22;;;;;;;4.40;3.65;;;;;;;;;;5137508;27;20261;-50
2022/03/14 06:47:49;;;;;;;4.22;3.83;;;;;;;;;;5135665;27;20209;-50
2022/03/14 06:50:17;;;;;;;4.10;3.70;;;;;;;;;;5135998;27;20213;-50
2022/03/14 06:52:44;;;;;;;4.55;4.15;;;;;;;;;;5135963;27;20221;-50
2022/03/14 06:55:13;;;;;;;4.32;3.92;;;;;;;;;;5135926;27;20507;-50
2022/03/14 06:57:41;;;;;;;4.35;3.97;;;;;;;;;;5135591;27;20226;-50
2022/03/14 07:00:09;;;;;;;4.25;3.72;;;;;;;;;;5136388;27;20202;-50
2022/03/14 07:02:39;;;;;;;4.10;3.75;;;;;;;;;;5136315;27;20286;-50
2022/03/14 07:05:07;;;;;;;4.10;3.80;;;;;;;;;;5136175;27;20212;-50
2022/03/14 07:07:35;;;;;;;4.72;4.28;;;;;;;;;;5135093;27;20604;-50
2022/03/14 07:10:02;;;;;;;4.70;4.30;;;;;;;;;;5135657;27;20210;-50
2022/03/14 07:12:31;;;;;;;4.82;4.40;;;;;;;;;;5135543;27;20222;-50
2022/03/14 07:14:58;;;;;;;4.53;4.13;;;;;;;;;;5135928;27;20222;-50
2022/03/14 07:17:26;;;;;;;4.30;3.90;;;;;;;;;;5135295;27;20201;-50
2022/03/14 07:19:53;;;;;;;4.55;4.15;;;;;;;;;;5135434;27;20210;-50
2022/03/14 07:22:21;;;;;;;4.55;4.00;;;;;;;;;;5135709;27;20581;-50
2022/03/14 07:24:49;;;;;;;4.70;4.30;;;;;;;;;;5135857;27;20194;-50
2022/03/14 07:27:16;;;;;;;4.40;3.88;;;;;;;;;;5136032;27;20208;-50
2022/03/14 07:29:46;;;;;;;4.97;4.40;;;;;;;;;;5117673;27;20456;-50
2022/03/14 07:32:14;;;;;;;4.90;4.32;;;;;;;;;;5135827;27;20252;-50
2022/03/14 07:34:41;;;;;;;4.95;4.38;;;;;;;;;;5135961;27;20226;-50
2022/03/14 07:37:09;;;;;;;4.32;3.85;;;;;;;;;;5136110;27;20612;-50
2022/03/14 07:39:36;;;;;;;4.35;3.88;;;;;;;;;;5135599;27;20202;-50
2022/03/14 07:42:04;;;;;;;4.82;3.90;;;;;;;;;;5135203;27;20584;-50
2022/03/14 07:44:31;;;;;;;6.32;4.13;;;;;;;;;;5135741;27;20209;-50
2022/03/14 07:47:03;;;;;;;6.22;4.35;;;;;;;;;;5134112;27;20588;-50
2022/03/14 07:49:31;;;;;;;5.85;5.22;;;;;;;;;;5136834;27;20202;-50
2022/03/14 07:51:58;;;;;;;13.73;10.40;;;;;;;;;;5136173;27;20234;-50
2022/03/14 07:54:26;;;;;;;11.98;9.30;;;;;;;;;;5135388;27;20202;-50
2022/03/14 07:56:54;;;;;;;11.15;9.07;;;;;;;;;;5134995;27;20303;-50
2022/03/14 07:59:21;;;;;;;10.43;8.48;;;;;;;;;;5134255;27;20246;-50
2022/03/14 08:01:48;;;;;;;10.68;8.75;;;;;;;;;;5134558;27;20202;-50
2022/03/14 08:04:17;;;;;;;10.65;8.57;;;;;;;;;;5135204;28;20778;-50
2022/03/14 08:06:45;;;;;;;10.20;8.57;;;;;;;;;;5135601;28;20228;-50
2022/03/14 08:09:12;;;;;;;12.07;9.13;;;;;;;;;;5135057;28;20209;-50
2022/03/14 08:11:40;;;;;;;11.13;8.30;;;;;;;;;;5134927;28;20222;-50
2022/03/14 08:14:08;;;;;;;10.35;8.23;;;;;;;;;;5135164;28;20300;-50
2022/03/14 08:16:35;;;;;;;11.32;8.00;;;;;;;;;;5135101;28;20202;-50
2022/03/14 08:19:03;;;;;;;9.38;7.75;;;;;;;;;;5133842;28;20213;-50
2022/03/14 08:21:33;;;;;;;8.68;7.50;;;;;;;;;;5135070;28;20198;-50
2022/03/14 08:24:00;;;;;;;9.57;8.00;;;;;;;;;;5135134;28;20202;-50
2022/03/14 08:26:28;;;;;;;8.80;7.60;;;;;;;;;;5134186;28;20202;-50
2022/03/14 08:28:55;;;;;;;8.88;7.25;;;;;;;;;;5134644;28;20198;-50
2022/03/14 08:31:22;;;;;;;10.73;7.28;;;;;;;;;;5135744;28;20486;-50
2022/03/14 08:33:50;;;;;;;7.93;7.15;;;;;;;;;;5135001;28;20514;-50
2022/03/14 08:36:20;;;;;;;8.15;7.35;;;;;;;;;;5135624;28;20202;-50
2022/03/14 08:38:49;;;;;;;8.50;7.45;;;;;;;;;;5135411;28;20194;-50
2022/03/14 08:41:16;;;;;;;9.93;7.22;;;;;;;;;;5135869;28;20202;-50
2022/03/14 08:43:44;;;;;;;9.57;7.53;;;;;;;;;;5134631;28;20206;-50
2022/03/14 08:46:12;;;;;;;7.90;6.90;;;;;;;;;;5134690;28;20202;-50
2022/03/14 08:48:39;;;;;;;7.82;6.78;;;;;;;;;;5134173;28;20191;-50
2022/03/14 08:51:07;;;;;;;7.57;6.78;;;;;;;;;;5134190;28;20206;-50
2022/03/14 08:53:34;;;;;;;9.85;7.45;;;;;;;;;;5135032;28;20222;-50
2022/03/14 08:56:04;;;;;;;9.68;6.80;;;;;;;;;;5134546;28;20210;-50
2022/03/14 08:58:31;;;;;;;7.30;6.50;;;;;;;;;;5134180;28;20218;-50
2022/03/14 09:00:59;;;;;;;7.78;6.95;;;;;;;;;;5135071;28;20203;-50
2022/03/14 09:03:27;;;;;;;9.27;6.82;;;;;;;;;;5134404;28;20481;-50
2022/03/14 09:05:56;;;;;;;7.70;7.00;;;;;;;;;;5134473;28;20251;-50
2022/03/14 09:08:24;;;;;;;7.30;6.60;;;;;;;;;;5133222;28;20723;-50
2022/03/14 09:10:51;;;;;;;7.60;6.80;;;;;;;;;;5135322;27;20203;-50
2022/03/14 09:13:21;;;;;;;6.60;6.00;;;;;;;;;;5137603;27;20223;-50
2022/03/14 09:15:48;;;;;;;6.72;6.13;;;;;;;;;;5137179;27;20307;-50
2022/03/14 09:18:16;;;;;;;7.13;6.43;;;;;;;;;;5136508;27;20194;-50
2022/03/14 09:20:44;;;;;;;6.57;5.85;;;;;;;;;;5137546;27;20206;-50
2022/03/14 09:23:11;;;;;;;7.03;6.32;;;;;;;;;;5137486;27;20198;-50
2022/03/14 09:25:40;;;;;;;7.10;6.40;;;;;;;;;;5136938;27;20213;-50
2022/03/14 09:28:08;;;;;;;7.40;6.70;;;;;;;;;;5137149;27;20221;-50
2022/03/14 09:30:37;;;;;;;7.18;5.72;;;;;;;;;;5137817;27;20228;-50
2022/03/14 09:33:04;;;;;;;6.93;6.22;;;;;;;;;;5137583;27;20313;-50
2022/03/14 09:35:33;;;;;;;7.55;6.85;;;;;;;;;;5137114;27;20707;-50
2022/03/14 09:38:01;;;;;;;12.00;10.60;;;;;;;;;;5137247;27;20198;-50
2022/03/14 09:40:30;;;;;;;25.10;20.63;;;;;;;;;;5137272;27;20493;-50
2022/03/14 09:42:59;;;;;;;22.77;19.02;;;;;;;;;;5136652;27;20209;-50
2022/03/14 09:45:27;;;;;;;21.45;18.38;;;;;;;;;;5135908;27;20198;-50
2022/03/14 09:47:57;;;;;;;18.40;16.35;;;;;;;;;;5136884;27;20198;-50
2022/03/14 09:50:27;;;;;;;19.08;15.75;;;;;;;;;;5136316;27;20202;-50
2022/03/14 09:52:56;;;;;;;19.73;14.98;;;;;;;;;;5137378;27;20237;-50
2022/03/14 09:55:23;;;;;;;15.82;14.18;;;;;;;;;;5136490;27;20708;-50
2022/03/14 09:57:51;;;;;;;16.02;13.48;;;;;;;;;;5136138;27;20229;-50
2022/03/14 10:00:19;;;;;;;15.57;12.93;;;;;;;;;;5137087;27;20239;-50
2022/03/14 10:02:47;;;;;;;15.77;13.43;;;;;;;;;;5136841;27;20206;-50
2022/03/14 10:05:16;;;;;;;14.98;12.73;;;;;;;;;;5136047;27;20271;-50
2022/03/14 10:07:45;;;;;;;14.68;12.32;;;;;;;;;;5135646;27;20287;-50
2022/03/14 10:10:12;;;;;;;15.05;12.35;;;;;;;;;;5136043;27;20213;-50
2022/03/14 10:12:40;;;;;;;14.38;11.73;;;;;;;;;;5137069;27;20226;-50
2022/03/14 10:15:08;;;;;;;14.18;11.68;;;;;;;;;;5137716;27;20214;-50
2022/03/14 10:17:35;;;;;;;12.65;11.10;;;;;;;;;;5136321;27;20198;-50
2022/03/14 10:20:06;;;;;;;13.65;11.32;;;;;;;;;;5137117;27;20291;-50
2022/03/14 10:22:36;;;;;;;12.13;10.63;;;;;;;;;;5135744;27;20308;-50
2022/03/14 10:25:05;;;;;;;11.40;10.20;;;;;;;;;;5136594;27;20815;-50
2022/03/14 10:27:35;;;;;;;11.48;10.23;;;;;;;;;;5136508;27;20570;-50
2022/03/14 10:30:03;;;;;;;14.40;10.68;;;;;;;;;;5136818;27;20210;-50
2022/03/14 10:32:30;;;;;;;13.18;10.00;;;;;;;;;;5136157;27;20222;-50
2022/03/14 10:35:00;;;;;;;12.52;10.02;;;;;;;;;;5136349;27;20198;-50
2022/03/14 10:37:29;;;;;;;13.15;9.90;;;;;;;;;;5135627;27;20208;-50
2022/03/14 10:40:05;;;;;;;14.57;9.93;;;;;;;;;;5136040;27;20217;-50
2022/03/14 10:42:38;;;;;;;11.13;9.10;;;;;;;;;;5136664;27;20224;-50
2022/03/14 10:45:08;;;;;;;13.35;9.70;;;;;;;;;;5135737;27;20202;-50
2022/03/14 10:47:38;;;;;;;15.82;10.77;;;;;;;;;;5135672;27;20672;-50
2022/03/14 10:50:06;;;;;;;16.35;11.27;;;;;;;;;;5136089;27;20202;-50
2022/03/14 10:52:33;;;;;;;15.65;10.90;;;;;;;;;;5136206;27;20278;-50
2022/03/14 10:55:01;;;;;;;14.63;10.02;;;;;;;;;;5135441;27;20206;-50
2022/03/14 10:57:31;;;;;;;12.35;10.13;;;;;;;;;;5134990;27;20268;-50
2022/03/14 10:59:58;;;;;;;12.40;9.73;;;;;;;;;;5135682;27;20520;-50
2022/03/14 11:02:28;;;;;;;14.68;9.77;;;;;;;;;;5135298;27;20202;-50
2022/03/14 11:04:56;;;;;;;14.23;10.25;;;;;;;;;;5135806;27;20647;-50
2022/03/14 11:07:26;;;;;;;12.18;9.80;;;;;;;;;;5135053;27;20293;-50
2022/03/14 11:09:53;;;;;;;12.32;9.20;;;;;;;;;;5135608;27;20198;-50
2022/03/14 11:12:22;;;;;;;10.65;8.65;;;;;;;;;;5135221;27;20229;-50
2022/03/14 11:14:54;;;;;;;14.27;8.40;;;;;;;;;;5134970;27;20202;-50
2022/03/14 11:17:22;;;;;;;12.20;8.55;;;;;;;;;;5134601;27;20198;-50
2022/03/14 11:19:51;;;;;;;10.20;8.20;;;;;;;;;;5135408;27;20206;-50
2022/03/14 11:22:20;;;;;;;12.32;8.02;;;;;;;;;;5135209;27;20296;-50
2022/03/14 11:24:48;;;;;;;8.45;7.53;;;;;;;;;;5135118;27;20201;-50
2022/03/14 11:27:19;;;;;;;9.45;7.80;;;;;;;;;;5133317;27;20217;-50
2022/03/14 11:29:47;;;;;;;8.93;7.35;;;;;;;;;;5132814;27;20263;-50
2022/03/14 11:32:17;;;;;;;8.10;7.28;;;;;;;;;;5132316;27;20206;-50
2022/03/14 11:34:45;;;;;;;9.07;7.32;;;;;;;;;;5131960;27;20209;-50
2022/03/14 11:37:13;;;;;;;8.73;7.22;;;;;;;;;;5131107;27;20198;-50
2022/03/14 11:39:41;;;;;;;10.75;7.28;;;;;;;;;;5132651;27;20209;-50
2022/03/14 11:42:11;;;;;;;8.52;6.95;;;;;;;;;;5131349;27;20314;-50
2022/03/14 11:44:40;;;;;;;8.98;7.07;;;;;;;;;;5131856;27;20332;-50
2022/03/14 11:47:09;;;;;;;7.40;6.28;;;;;;;;;;5131790;27;20191;-50
2022/03/14 11:49:38;;;;;;;7.18;6.43;;;;;;;;;;5131014;27;20208;-50
2022/03/14 11:52:09;;;;;;;7.78;6.40;;;;;;;;;;5130927;27;20273;-50
2022/03/14 11:54:38;;;;;;;7.13;6.10;;;;;;;;;;5131858;27;20201;-50
2022/03/14 11:57:06;;;;;;;7.18;6.05;;;;;;;;;;5131117;27;20302;-50
2022/03/14 11:59:35;;;;;;;6.72;5.50;;;;;;;;;;5132109;27;20283;-50
2022/03/14 12:02:05;;;;;;;7.55;6.00;;;;;;;;;;5131528;27;20503;-50
2022/03/14 12:04:34;;;;;;;6.22;5.63;;;;;;;;;;5131101;28;20447;-50
2022/03/14 12:07:07;;;;;;;6.32;5.68;;;;;;;;;;5130240;28;20206;-50
2022/03/14 12:09:45;;;;;;;6.43;5.75;;;;;;;;;;5131625;28;20194;-50
2022/03/14 12:12:31;;;;;;;5.40;4.90;;;;;;;;;;5132656;28;20202;-50
2022/03/14 12:14:59;;;;;;;5.65;5.00;;;;;;;;;;5132532;28;20214;-50
2022/03/14 12:17:28;;;;;;;6.85;5.38;;;;;;;;;;5131811;28;20296;-50
2022/03/14 12:19:59;;;;;;;6.07;5.25;;;;;;;;;;5132490;28;20209;-50
2022/03/14 12:22:43;;;;;;;5.55;4.70;;;;;;;;;;5132797;28;20272;-50
2022/03/14 12:25:11;;;;;;;5.07;4.57;;;;;;;;;;5132589;28;20213;-50
2022/03/14 12:27:39;;;;;;;5.38;4.47;;;;;;;;;;5131722;28;20194;-50
2022/03/14 12:30:27;;;;;;;4.35;3.95;;;;;;;;;;5133579;28;20202;-50
2022/03/14 12:32:55;;;;;;;4.40;4.00;;;;;;;;;;5133983;28;20218;-50
2022/03/14 12:35:33;;;;;;;4.40;3.83;;;;;;;;;;5134044;28;20199;-50
2022/03/14 12:38:14;;;;;;;4.13;3.72;;;;;;;;;;5133347;28;20263;-50
2022/03/14 12:40:42;;;;;;;4.35;3.53;;;;;;;;;;5134359;28;20499;-50
2022/03/14 12:43:24;;;;;;;29.83;23.13;;;;;;;;;;5133231;28;20198;-50
2022/03/14 12:45:53;;;;;;;33.97;26.83;;;;;;;;;;5130194;27;20209;-50
2022/03/14 12:48:21;;;;;;;30.52;23.75;;;;;;;;;;5137581;27;20194;-50
2022/03/14 12:50:56;;;;;;;29.98;23.10;;;;;;;;;;5138204;27;20309;-50
2022/03/14 12:56:20;;;;;;;23.55;20.00;;;;;;;;;;5132845;27;21317;-50
2022/03/14 12:58:54;;;;;;;24.17;18.85;;;;;;;;;;5112196;28;20203;-51
2022/03/14 13:01:22;;;;;;;22.33;17.85;;;;;;;;;;5111884;28;20302;-50
2022/03/14 13:03:50;;;;;;;22.73;17.33;;;;;;;;;;5112993;28;20203;-50
2022/03/14 13:06:18;;;;;;;20.40;16.33;;;;;;;;;;5112071;28;20285;-50
2022/03/14 13:08:46;;;;;;;20.58;15.60;;;;;;;;;;5111864;28;20195;-50
2022/03/14 13:11:14;;;;;;;20.30;16.05;;;;;;;;;;5112395;28;20199;-50
2022/03/14 13:13:42;;;;;;;18.90;15.20;;;;;;;;;;5111596;28;20195;-50
2022/03/14 13:16:11;;;;;;;16.40;13.10;;;;;;;;;;5111581;28;20215;-50
2022/03/14 13:18:39;;;;;;;16.95;13.32;;;;;;;;;;5112601;28;20289;-51
2022/03/14 13:21:13;;;;;;;14.90;11.85;;;;;;;;;;5112607;28;20251;-50
2022/03/14 13:23:41;;;;;;;13.45;10.98;;;;;;;;;;5112160;28;20203;-50
2022/03/14 13:26:09;;;;;;;12.85;11.40;;;;;;;;;;5111874;28;20210;-50
2022/03/14 13:28:38;;;;;;;12.98;11.18;;;;;;;;;;5112634;28;20207;-50
2022/03/14 13:31:09;;;;;;;12.32;10.82;;;;;;;;;;5112000;28;20203;-50
2022/03/14 13:33:37;;;;;;;13.57;10.77;;;;;;;;;;5111308;28;20282;-50
2022/03/14 13:36:05;;;;;;;15.35;11.40;;;;;;;;;;5110678;28;20797;-50
2022/03/14 13:38:34;;;;;;;13.07;10.52;;;;;;;;;;5111115;28;20469;-50
2022/03/14 13:41:03;;;;;;;11.45;9.90;;;;;;;;;;5111489;28;20203;-49
2022/03/14 13:43:31;;;;;;;10.82;9.25;;;;;;;;;;5111458;28;20199;-50
2022/03/14 13:46:17;;;;;;;11.05;9.15;;;;;;;;;;5111947;28;20253;-50
2022/03/14 13:48:52;;;;;;;10.65;9.20;;;;;;;;;;5110955;28;20480;-50
2022/03/14 13:51:21;;;;;;;10.00;8.80;;;;;;;;;;5111309;28;20295;-49
2022/03/14 13:53:48;;;;;;;10.15;8.90;;;;;;;;;;5110728;28;20210;-50
2022/03/14 13:56:16;;;;;;;11.30;8.82;;;;;;;;;;5110019;28;20226;-51
2022/03/14 13:58:54;;;;;;;10.93;8.77;;;;;;;;;;5110804;28;20229;-52
2022/03/14 14:01:21;;;;;;;9.63;8.32;;;;;;;;;;5110999;28;20203;-49
2022/03/14 14:03:49;;;;;;;9.82;8.43;;;;;;;;;;5111183;28;20586;-52
2022/03/14 14:06:18;;;;;;;13.45;9.77;;;;;;;;;;5104962;28;20192;-51
2022/03/14 14:08:47;;;;;;;14.25;10.82;;;;;;;;;;5098418;28;20199;-51
2022/03/14 14:11:26;;;;;;;14.93;10.68;;;;;;;;;;5097699;28;20200;-49
2022/03/14 14:13:53;;;;;;;12.45;9.63;;;;;;;;;;5097978;28;20260;-49
2022/03/14 14:16:22;;;;;;;12.65;9.80;;;;;;;;;;5097507;28;20522;-50
2022/03/14 14:19:04;;;;;;;12.00;9.88;;;;;;;;;;5097192;28;20769;-51
2022/03/14 14:21:33;;;;;;;12.35;9.00;;;;;;;;;;5097839;28;20218;-50
2022/03/14 14:24:00;;;;;;;12.30;10.00;;;;;;;;;;5097117;28;20642;-50
2022/03/14 14:26:31;;;;;;;13.63;8.90;;;;;;;;;;5096984;28;20188;-51
2022/03/14 14:28:58;;;;;;;11.95;9.05;;;;;;;;;;5097240;28;20488;-50
2022/03/14 14:31:26;;;;;;;11.18;8.63;;;;;;;;;;5096547;28;20710;-50
2022/03/14 14:33:53;;;;;;;10.23;8.85;;;;;;;;;;5096643;28;20486;-50
2022/03/14 14:36:22;;;;;;;11.73;8.63;;;;;;;;;;5096110;28;20211;-50
2022/03/14 14:38:51;;;;;;;12.00;9.10;;;;;;;;;;5096538;28;20196;-50
2022/03/14 14:41:18;;;;;;;11.35;8.52;;;;;;;;;;5096453;28;20196;-50
2022/03/14 14:43:46;;;;;;;11.63;8.65;;;;;;;;;;5096707;28;20200;-51
2022/03/14 14:46:13;;;;;;;11.65;7.80;;;;;;;;;;5094816;28;20260;-50
2022/03/14 14:48:40;;;;;;;11.90;8.43;;;;;;;;;;5096021;28;20330;-50